createdAt,value
2022-09-06T00:03:56.160Z,101450.59
2022-09-06T00:08:57.899Z,101451.28
2022-09-06T00:13:59.645Z,101441.75
2022-09-06T00:19:01.340Z,101448.03
2022-09-06T00:24:03.998Z,101439.94
2022-09-06T00:29:06.660Z,101438.16
2022-09-06T00:34:08.392Z,101438.16
2022-09-06T00:39:10.180Z,101446.56
2022-09-06T00:44:12.130Z,101449.19
2022-09-06T00:49:39.032Z,101472.50
2022-09-06T00:54:41.911Z,101487.25
2022-09-06T00:59:45.820Z,101517.06
2022-09-06T01:04:49.187Z,101490.84
2022-09-06T01:10:08.890Z,101470.09
2022-09-06T01:15:18.936Z,101475.69
2022-09-06T01:20:32.462Z,101478.72
2022-09-06T01:26:01.203Z,101475.63
2022-09-06T01:31:23.448Z,101470.88
2022-09-06T01:36:29.202Z,101456.81
2022-09-06T01:41:31.887Z,101443.06
2022-09-06T01:47:17.899Z,101426.91
2022-09-06T01:52:38.316Z,101415.56
2022-09-06T01:58:29.970Z,101405.81
2022-09-06T02:03:46.366Z,101390.16
2022-09-06T02:08:57.575Z,101400.72
2022-09-06T02:14:07.184Z,101396.28
2022-09-06T02:19:18.022Z,101382.22
2022-09-06T02:24:26.084Z,101378.66
2022-09-06T02:29:27.959Z,101375.31
2022-09-06T02:34:30.923Z,101373.63
2022-09-06T02:39:32.755Z,101380.06
2022-09-06T02:44:34.507Z,101382.47
2022-09-06T02:49:36.366Z,101375.19
2022-09-06T02:54:38.016Z,101375.41
2022-09-06T02:59:39.827Z,101376.03
2022-09-06T03:04:43.732Z,101384.66
2022-09-06T03:09:45.324Z,101400.88
2022-09-06T03:14:50.152Z,101391.75
2022-09-06T03:19:54.696Z,101385.28
2022-09-06T03:24:56.664Z,101387.13
2022-09-06T03:29:58.558Z,101384.59
2022-09-06T03:35:00.516Z,101395.31
2022-09-06T03:40:06.519Z,101394.44
2022-09-06T03:45:08.899Z,101400.34
2022-09-06T03:50:10.874Z,101409.28
2022-09-06T03:55:12.546Z,101414.47
2022-09-06T04:00:15.016Z,101417.94
2022-09-06T04:05:17.528Z,101445.94
2022-09-06T04:10:19.304Z,101455.00
2022-09-06T04:15:21.050Z,101437.38
2022-09-06T04:20:23.570Z,101450.81
2022-09-06T04:25:25.221Z,101446.50
2022-09-06T04:30:27.915Z,101450.41
2022-09-06T04:35:29.558Z,101444.69
2022-09-06T04:40:31.282Z,101438.03
2022-09-06T04:45:33.018Z,101429.25
2022-09-06T04:50:34.969Z,101432.69
2022-09-06T04:55:42.287Z,101434.63
2022-09-06T05:00:44.976Z,101435.47
2022-09-06T05:05:46.719Z,101426.88
2022-09-06T05:10:51.473Z,101403.50
2022-09-06T05:15:53.164Z,101394.28
2022-09-06T05:20:55.150Z,101384.47
2022-09-06T05:25:56.938Z,101377.31
2022-09-06T05:31:13.216Z,101369.78
2022-09-06T05:36:15.116Z,101350.94
2022-09-06T05:41:16.763Z,101352.28
2022-09-06T05:46:18.827Z,101358.06
2022-09-06T05:51:20.668Z,101352.72
2022-09-06T05:56:22.613Z,101360.31
2022-09-06T06:01:31.423Z,101359.09
2022-09-06T06:06:35.258Z,101357.34
2022-09-06T06:11:37.218Z,101358.59
2022-09-06T06:16:39.049Z,101367.59
2022-09-06T06:21:40.850Z,101368.31
2022-09-06T06:26:42.551Z,101369.66
2022-09-06T06:31:44.260Z,101364.91
2022-09-06T06:36:46.030Z,101358.19
2022-09-06T06:41:49.841Z,101352.13
2022-09-06T06:47:20.799Z,101359.66
2022-09-06T06:52:24.419Z,101352.13
2022-09-06T06:57:26.789Z,101352.53
2022-09-06T07:02:29.541Z,101346.50
2022-09-06T07:07:34.344Z,101347.44
2022-09-06T07:12:38.260Z,101344.13
2022-09-06T07:17:40.979Z,101349.56
2022-09-06T07:22:42.852Z,101354.84
2022-09-06T07:32:47.604Z,101356.47
2022-09-06T07:38:07.126Z,101353.66
2022-09-06T07:43:08.889Z,101359.22
2022-09-06T07:48:10.693Z,101355.28
2022-09-06T07:53:16.532Z,101348.09
2022-09-06T07:58:23.722Z,101353.50
2022-09-06T08:03:26.447Z,101349.84
2022-09-06T08:13:55.679Z,101337.69
2022-09-06T08:19:01.463Z,101336.03
2022-09-06T08:24:06.891Z,101343.44
2022-09-06T08:29:10.900Z,101347.84
2022-09-06T08:34:14.194Z,101348.44
2022-09-06T08:39:16.824Z,101351.59
2022-09-06T08:50:07.539Z,101353.41
2022-09-06T08:55:24.310Z,101348.06
2022-09-06T09:00:26.164Z,101340.31
2022-09-06T09:05:32.672Z,101334.25
2022-09-06T09:10:50.425Z,101337.31
2022-09-06T09:15:53.265Z,101322.34
2022-09-06T09:20:55.392Z,101329.16
2022-09-06T09:26:02.544Z,101323.94
2022-09-06T09:31:05.273Z,101322.72
2022-09-06T09:36:13.587Z,101329.88
2022-09-06T09:41:30.300Z,101331.41
2022-09-06T09:46:36.297Z,101337.53
2022-09-06T09:51:42.929Z,101340.56
2022-09-06T09:56:49.817Z,101348.00
2022-09-06T10:02:01.136Z,101351.66
2022-09-06T10:07:15.023Z,101347.50
2022-09-06T10:12:19.164Z,101366.31
2022-09-06T10:17:26.865Z,101373.78
2022-09-06T10:22:35.516Z,101376.47
2022-09-06T10:28:01.617Z,101373.66
2022-09-06T10:33:35.191Z,101379.75
2022-09-06T10:39:03.524Z,101382.72
2022-09-06T10:44:33.820Z,101377.75
2022-09-06T10:49:37.950Z,101374.19
2022-09-06T10:54:42.122Z,101372.41
2022-09-06T10:59:52.029Z,101379.41
2022-09-06T11:10:29.283Z,101396.31
2022-09-06T11:16:01.306Z,101407.88
2022-09-06T11:21:40.600Z,101405.03
2022-09-06T11:27:38.679Z,101404.81
2022-09-06T11:32:48.686Z,101403.16
2022-09-06T11:38:00.971Z,101404.19
2022-09-06T11:43:03.233Z,101414.47
2022-09-06T11:48:23.533Z,101407.06
2022-09-06T11:53:25.345Z,101408.44
2022-09-06T11:58:33.456Z,101416.16
2022-09-06T12:04:09.865Z,101406.81
2022-09-06T12:09:29.416Z,101417.66
2022-09-06T12:14:34.417Z,101407.94
2022-09-06T12:19:46.421Z,101421.31
2022-09-06T12:24:48.406Z,101421.22
2022-09-06T12:30:02.449Z,101411.75
2022-09-06T12:40:36.871Z,101398.44
2022-09-06T12:45:44.413Z,101389.81
2022-09-06T12:50:46.192Z,101386.75
2022-09-06T12:55:47.974Z,101385.75
2022-09-06T13:00:53.179Z,101370.78
2022-09-06T13:05:56.627Z,101372.44
2022-09-06T13:11:00.483Z,101370.94
2022-09-06T13:16:03.366Z,101361.91
2022-09-06T13:21:18.926Z,101355.69
2022-09-06T13:26:38.828Z,101367.25
2022-09-06T13:31:45.538Z,101354.81
2022-09-06T13:37:05.392Z,101360.22
2022-09-06T13:42:23.416Z,101338.59
2022-09-06T13:47:29.441Z,101351.53
2022-09-06T13:52:31.208Z,101354.81
2022-09-06T13:57:32.910Z,101353.69
2022-09-06T14:02:34.852Z,101353.69
2022-09-06T14:07:36.549Z,101368.84
2022-09-06T14:12:38.261Z,101361.63
2022-09-06T14:17:39.920Z,101352.31
2022-09-06T14:22:43.718Z,101360.69
2022-09-06T14:27:48.523Z,101339.34
2022-09-06T14:32:50.346Z,101329.88
2022-09-06T14:37:52.304Z,101339.66
2022-09-06T14:42:54.046Z,101346.31
2022-09-06T14:47:56.244Z,101338.13
2022-09-06T14:52:58.378Z,101338.44
2022-09-06T14:58:00.063Z,101335.09
2022-09-06T15:03:01.726Z,101326.69
2022-09-06T15:08:03.562Z,101330.94
2022-09-06T15:13:06.298Z,101325.50
2022-09-06T15:18:07.883Z,101311.94
2022-09-06T15:23:26.302Z,101323.78
2022-09-06T15:28:30.140Z,101313.84
2022-09-06T15:33:33.562Z,101300.91
2022-09-06T15:38:36.996Z,101292.22
2022-09-06T15:43:42.158Z,101279.69
2022-09-06T15:48:49.293Z,101277.47
2022-09-06T15:53:50.968Z,101282.00
2022-09-06T15:58:52.733Z,101279.59
2022-09-06T16:04:06.152Z,101264.81
2022-09-06T16:09:17.624Z,101260.00
2022-09-06T16:14:19.478Z,101252.91
2022-09-06T16:19:21.179Z,101262.47
2022-09-06T16:24:23.340Z,101268.59
2022-09-06T16:29:25.297Z,101271.44
2022-09-06T16:34:27.490Z,101254.50
2022-09-06T16:39:29.256Z,101266.22
2022-09-06T16:44:31.149Z,101266.47
2022-09-06T16:49:32.853Z,101260.25
2022-09-06T16:54:34.519Z,101261.00
2022-09-06T16:59:37.330Z,101258.16
2022-09-06T17:04:39.093Z,101247.69
2022-09-06T17:09:40.759Z,101249.31
2022-09-06T17:14:42.927Z,101261.41
2022-09-06T17:19:44.630Z,101256.03
2022-09-06T17:24:46.266Z,101254.28
2022-09-06T17:29:48.144Z,101253.44
2022-09-06T17:34:50.234Z,101260.72
2022-09-06T17:39:51.964Z,101257.34
2022-09-06T17:44:53.697Z,101243.72
2022-09-06T17:49:55.372Z,101239.66
2022-09-06T17:54:57.042Z,101238.81
2022-09-06T18:00:00.995Z,101240.19
2022-09-06T18:05:02.768Z,101231.72
2022-09-06T18:10:04.796Z,101239.56
2022-09-06T18:15:07.148Z,101247.34
2022-09-06T18:20:09.133Z,101244.75
2022-09-06T18:25:11.064Z,101237.97
2022-09-06T18:30:14.962Z,101244.97
2022-09-06T18:35:17.263Z,101237.00
2022-09-06T18:40:19.043Z,101238.91
2022-09-06T18:45:22.759Z,101233.78
2022-09-06T18:50:25.675Z,101237.72
2022-09-06T18:55:27.280Z,101242.66
2022-09-06T19:00:29.592Z,101215.88
2022-09-06T19:05:36.549Z,101215.88
2022-09-06T19:10:38.396Z,101209.59
2022-09-06T19:15:43.246Z,101206.41
2022-09-06T19:20:46.704Z,101205.28
2022-09-06T19:25:56.807Z,101196.03
2022-09-06T19:31:05.004Z,101175.25
2022-09-06T19:36:11.813Z,101166.63
2022-09-06T19:41:17.136Z,101173.25
2022-09-06T19:46:19.828Z,101165.78
2022-09-06T19:51:21.987Z,101161.47
2022-09-06T19:56:26.735Z,101150.44
2022-09-06T20:01:32.691Z,101151.81
2022-09-06T20:06:36.486Z,101147.84
2022-09-06T20:11:41.332Z,101144.00
2022-09-06T20:16:45.494Z,101131.34
2022-09-06T20:21:47.173Z,101129.63
2022-09-06T20:26:51.129Z,101118.94
2022-09-06T20:31:52.908Z,101101.53
2022-09-06T20:36:54.599Z,101103.16
2022-09-06T20:41:56.218Z,101092.06
2022-09-06T20:46:58.085Z,101063.63
2022-09-06T20:52:00.787Z,101048.41
2022-09-06T20:57:03.852Z,101058.41
2022-09-06T21:02:06.331Z,101075.16
2022-09-06T21:07:09.243Z,101096.50
2022-09-06T21:12:11.139Z,101117.75
2022-09-06T21:17:12.763Z,101114.09
2022-09-06T21:22:14.599Z,101136.03
2022-09-06T21:27:16.732Z,101130.25
2022-09-06T21:32:18.563Z,101137.69
2022-09-06T21:37:20.375Z,101151.72
2022-09-06T21:42:22.046Z,101236.09
2022-09-06T21:47:23.711Z,101335.94
2022-09-06T21:52:25.365Z,101397.38
2022-09-06T21:57:28.096Z,101440.03
2022-09-06T22:02:30.020Z,101420.94
2022-09-06T22:07:32.112Z,101419.97
2022-09-06T22:12:33.947Z,101403.31
2022-09-06T22:17:35.727Z,101391.81
2022-09-06T22:22:38.140Z,101361.34
2022-09-06T22:27:40.692Z,101360.88
2022-09-06T22:32:42.363Z,101375.59
2022-09-06T22:37:44.112Z,101380.72
2022-09-06T22:42:46.267Z,101370.13
2022-09-06T22:47:51.016Z,101367.28
2022-09-06T22:53:00.868Z,101369.47
2022-09-06T22:58:03.879Z,101371.97
2022-09-06T23:03:05.546Z,101345.38
2022-09-06T23:08:08.362Z,101305.28
2022-09-06T23:13:10.975Z,101272.44
2022-09-06T23:18:13.988Z,101285.88
2022-09-06T23:23:15.776Z,101282.13
2022-09-06T23:28:17.496Z,101272.50
2022-09-06T23:33:19.163Z,101254.75
2022-09-06T23:38:20.855Z,101239.72
2022-09-06T23:43:22.650Z,101233.41
2022-09-06T23:48:24.823Z,101247.34
2022-09-06T23:53:26.692Z,101245.59
2022-09-06T23:58:28.537Z,101237.16
